sensor_id;sensor_type;location;lat;lon;timestamp;P1;durP1;ratioP1;P2;durP2;ratioP2
63664;SDS011;49820;33.966;73.390;2023-04-30T02:13:21;11.15;;;5.28;;
63664;SDS011;49820;33.966;73.390;2023-04-30T02:15:51;12.27;;;5.00;;
63664;SDS011;49820;33.966;73.390;2023-04-30T02:18:20;10.60;;;5.47;;
63664;SDS011;49820;33.966;73.390;2023-04-30T02:20:49;12.05;;;4.85;;
63664;SDS011;49820;33.966;73.390;2023-04-30T02:23:18;11.00;;;5.00;;
63664;SDS011;49820;33.966;73.390;2023-04-30T02:25:47;10.27;;;5.22;;
63664;SDS011;49820;33.966;73.390;2023-04-30T02:28:15;12.18;;;5.28;;
63664;SDS011;49820;33.966;73.390;2023-04-30T02:30:44;10.77;;;4.47;;
63664;SDS011;49820;33.966;73.390;2023-04-30T02:33:15;11.75;;;5.32;;
63664;SDS011;49820;33.966;73.390;2023-04-30T02:35:45;13.18;;;5.18;;
63664;SDS011;49820;33.966;73.390;2023-04-30T02:38:14;10.55;;;5.00;;
63664;SDS011;49820;33.966;73.390;2023-04-30T02:40:44;9.43;;;5.15;;
63664;SDS011;49820;33.966;73.390;2023-04-30T02:43:13;11.63;;;5.38;;
63664;SDS011;49820;33.966;73.390;2023-04-30T02:45:42;11.35;;;5.20;;
63664;SDS011;49820;33.966;73.390;2023-04-30T02:48:11;10.43;;;5.10;;
63664;SDS011;49820;33.966;73.390;2023-04-30T02:50:53;9.68;;;4.78;;
63664;SDS011;49820;33.966;73.390;2023-04-30T02:53:23;9.32;;;5.47;;
63664;SDS011;49820;33.966;73.390;2023-04-30T02:55:51;11.15;;;5.32;;
63664;SDS011;49820;33.966;73.390;2023-04-30T02:58:20;11.90;;;5.03;;
63664;SDS011;49820;33.966;73.390;2023-04-30T03:00:49;14.60;;;5.68;;
63664;SDS011;49820;33.966;73.390;2023-04-30T03:03:18;10.10;;;5.50;;
63664;SDS011;49820;33.966;73.390;2023-04-30T03:05:48;9.15;;;4.88;;
63664;SDS011;49820;33.966;73.390;2023-04-30T03:08:17;8.73;;;5.10;;
63664;SDS011;49820;33.966;73.390;2023-04-30T03:10:46;13.20;;;5.20;;
63664;SDS011;49820;33.966;73.390;2023-04-30T03:13:15;9.13;;;5.38;;
63664;SDS011;49820;33.966;73.390;2023-04-30T03:15:44;11.82;;;5.25;;
63664;SDS011;49820;33.966;73.390;2023-04-30T03:18:13;9.27;;;5.45;;
63664;SDS011;49820;33.966;73.390;2023-04-30T03:20:42;10.05;;;5.43;;
63664;SDS011;49820;33.966;73.390;2023-04-30T03:23:11;12.20;;;5.63;;
63664;SDS011;49820;33.966;73.390;2023-04-30T03:25:41;15.15;;;5.90;;
63664;SDS011;49820;33.966;73.390;2023-04-30T03:28:10;10.77;;;5.60;;
63664;SDS011;49820;33.966;73.390;2023-04-30T03:30:38;12.35;;;6.00;;
63664;SDS011;49820;33.966;73.390;2023-04-30T03:33:08;14.45;;;5.57;;
63664;SDS011;49820;33.966;73.390;2023-04-30T03:35:37;14.23;;;6.45;;
63664;SDS011;49820;33.966;73.390;2023-04-30T03:38:06;11.55;;;6.20;;
63664;SDS011;49820;33.966;73.390;2023-04-30T03:40:35;13.82;;;5.85;;
63664;SDS011;49820;33.966;73.390;2023-04-30T03:43:04;14.90;;;6.75;;
63664;SDS011;49820;33.966;73.390;2023-04-30T03:45:32;12.13;;;5.68;;
63664;SDS011;49820;33.966;73.390;2023-04-30T03:48:02;14.45;;;5.95;;
63664;SDS011;49820;33.966;73.390;2023-04-30T03:50:31;10.95;;;5.90;;
63664;SDS011;49820;33.966;73.390;2023-04-30T03:53:00;13.20;;;6.20;;
63664;SDS011;49820;33.966;73.390;2023-04-30T03:55:30;13.18;;;5.72;;
63664;SDS011;49820;33.966;73.390;2023-04-30T03:58:01;14.83;;;6.40;;
63664;SDS011;49820;33.966;73.390;2023-04-30T04:00:30;13.10;;;6.20;;
63664;SDS011;49820;33.966;73.390;2023-04-30T04:02:59;9.88;;;5.05;;
63664;SDS011;49820;33.966;73.390;2023-04-30T04:05:28;13.63;;;6.30;;
63664;SDS011;49820;33.966;73.390;2023-04-30T04:07:57;12.57;;;6.35;;
63664;SDS011;49820;33.966;73.390;2023-04-30T04:10:26;15.15;;;6.50;;
63664;SDS011;49820;33.966;73.390;2023-04-30T04:12:55;11.95;;;6.40;;
63664;SDS011;49820;33.966;73.390;2023-04-30T04:15:24;13.47;;;6.23;;
63664;SDS011;49820;33.966;73.390;2023-04-30T04:17:54;10.43;;;5.63;;
63664;SDS011;49820;33.966;73.390;2023-04-30T04:20:23;14.15;;;6.88;;
63664;SDS011;49820;33.966;73.390;2023-04-30T04:22:52;13.55;;;6.80;;
63664;SDS011;49820;33.966;73.390;2023-04-30T04:25:21;11.57;;;6.22;;
63664;SDS011;49820;33.966;73.390;2023-04-30T04:27:52;11.30;;;6.13;;
63664;SDS011;49820;33.966;73.390;2023-04-30T04:30:21;16.67;;;6.22;;
63664;SDS011;49820;33.966;73.390;2023-04-30T04:32:51;14.68;;;6.68;;
63664;SDS011;49820;33.966;73.390;2023-04-30T04:35:20;13.15;;;6.60;;
63664;SDS011;49820;33.966;73.390;2023-04-30T04:37:49;11.52;;;6.72;;
63664;SDS011;49820;33.966;73.390;2023-04-30T04:40:18;11.63;;;6.53;;
63664;SDS011;49820;33.966;73.390;2023-04-30T04:42:50;14.40;;;6.60;;
63664;SDS011;49820;33.966;73.390;2023-04-30T04:45:19;12.57;;;6.88;;
63664;SDS011;49820;33.966;73.390;2023-04-30T04:47:49;15.75;;;6.80;;
63664;SDS011;49820;33.966;73.390;2023-04-30T04:50:18;18.35;;;6.88;;
63664;SDS011;49820;33.966;73.390;2023-04-30T04:52:47;11.32;;;6.63;;
63664;SDS011;49820;33.966;73.390;2023-04-30T04:55:17;14.97;;;8.77;;
63664;SDS011;49820;33.966;73.390;2023-04-30T04:57:46;10.38;;;7.15;;
63664;SDS011;49820;33.966;73.390;2023-04-30T05:00:16;13.68;;;6.97;;
63664;SDS011;49820;33.966;73.390;2023-04-30T05:02:45;13.68;;;7.07;;
63664;SDS011;49820;33.966;73.390;2023-04-30T05:05:15;12.20;;;6.65;;
63664;SDS011;49820;33.966;73.390;2023-04-30T05:07:44;16.63;;;7.10;;
63664;SDS011;49820;33.966;73.390;2023-04-30T05:10:19;12.30;;;6.47;;
63664;SDS011;49820;33.966;73.390;2023-04-30T05:12:48;14.23;;;6.80;;
63664;SDS011;49820;33.966;73.390;2023-04-30T05:15:17;11.45;;;6.22;;
63664;SDS011;49820;33.966;73.390;2023-04-30T05:17:46;13.00;;;6.63;;
63664;SDS011;49820;33.966;73.390;2023-04-30T05:20:15;12.45;;;6.90;;
63664;SDS011;49820;33.966;73.390;2023-04-30T05:22:44;12.67;;;7.50;;
63664;SDS011;49820;33.966;73.390;2023-04-30T05:25:13;15.17;;;7.30;;
63664;SDS011;49820;33.966;73.390;2023-04-30T05:27:42;12.90;;;6.90;;
63664;SDS011;49820;33.966;73.390;2023-04-30T05:30:11;11.52;;;6.68;;
63664;SDS011;49820;33.966;73.390;2023-04-30T05:32:43;13.63;;;6.80;;
63664;SDS011;49820;33.966;73.390;2023-04-30T05:35:18;14.43;;;7.45;;
63664;SDS011;49820;33.966;73.390;2023-04-30T05:37:47;13.15;;;7.57;;
63664;SDS011;49820;33.966;73.390;2023-04-30T05:40:17;14.93;;;8.38;;
63664;SDS011;49820;33.966;73.390;2023-04-30T05:42:46;12.43;;;7.00;;
63664;SDS011;49820;33.966;73.390;2023-04-30T05:45:15;14.50;;;6.55;;
63664;SDS011;49820;33.966;73.390;2023-04-30T05:47:45;14.25;;;7.13;;
63664;SDS011;49820;33.966;73.390;2023-04-30T05:50:14;13.35;;;6.85;;
63664;SDS011;49820;33.966;73.390;2023-04-30T05:52:43;14.98;;;6.65;;
63664;SDS011;49820;33.966;73.390;2023-04-30T05:55:12;14.55;;;6.63;;
63664;SDS011;49820;33.966;73.390;2023-04-30T05:57:41;10.30;;;6.50;;
63664;SDS011;49820;33.966;73.390;2023-04-30T06:00:10;14.45;;;6.88;;
63664;SDS011;49820;33.966;73.390;2023-04-30T06:02:40;12.18;;;6.60;;
63664;SDS011;49820;33.966;73.390;2023-04-30T06:05:09;14.25;;;6.93;;
63664;SDS011;49820;33.966;73.390;2023-04-30T06:07:42;9.38;;;6.90;;
63664;SDS011;49820;33.966;73.390;2023-04-30T06:10:11;12.63;;;6.57;;
63664;SDS011;49820;33.966;73.390;2023-04-30T06:12:40;13.60;;;6.45;;
63664;SDS011;49820;33.966;73.390;2023-04-30T06:15:09;15.93;;;7.18;;
63664;SDS011;49820;33.966;73.390;2023-04-30T06:17:38;12.75;;;6.38;;
63664;SDS011;49820;33.966;73.390;2023-04-30T06:20:07;13.67;;;6.30;;
63664;SDS011;49820;33.966;73.390;2023-04-30T06:22:36;10.88;;;6.00;;
63664;SDS011;49820;33.966;73.390;2023-04-30T06:25:09;11.70;;;5.60;;
63664;SDS011;49820;33.966;73.390;2023-04-30T06:27:38;13.20;;;4.80;;
63664;SDS011;49820;33.966;73.390;2023-04-30T06:30:07;9.98;;;5.82;;
63664;SDS011;49820;33.966;73.390;2023-04-30T06:32:37;11.68;;;5.50;;
63664;SDS011;49820;33.966;73.390;2023-04-30T06:35:05;9.63;;;5.35;;
63664;SDS011;49820;33.966;73.390;2023-04-30T06:37:35;10.00;;;5.60;;
63664;SDS011;49820;33.966;73.390;2023-04-30T06:40:05;11.98;;;6.03;;
63664;SDS011;49820;33.966;73.390;2023-04-30T06:42:35;13.15;;;6.80;;
63664;SDS011;49820;33.966;73.390;2023-04-30T06:45:07;15.40;;;6.18;;
63664;SDS011;49820;33.966;73.390;2023-04-30T06:47:37;12.55;;;6.10;;
63664;SDS011;49820;33.966;73.390;2023-04-30T06:50:09;14.38;;;5.72;;
63664;SDS011;49820;33.966;73.390;2023-04-30T06:52:38;12.07;;;5.40;;
63664;SDS011;49820;33.966;73.390;2023-04-30T06:55:08;13.85;;;6.60;;
63664;SDS011;49820;33.966;73.390;2023-04-30T06:57:37;12.50;;;6.85;;
63664;SDS011;49820;33.966;73.390;2023-04-30T07:00:07;10.90;;;6.63;;
63664;SDS011;49820;33.966;73.390;2023-04-30T07:02:37;14.88;;;6.85;;
63664;SDS011;49820;33.966;73.390;2023-04-30T07:05:06;14.77;;;7.43;;
63664;SDS011;49820;33.966;73.390;2023-04-30T07:07:36;13.30;;;7.28;;
63664;SDS011;49820;33.966;73.390;2023-04-30T07:10:05;12.53;;;6.70;;
63664;SDS011;49820;33.966;73.390;2023-04-30T07:12:35;12.43;;;7.68;;
63664;SDS011;49820;33.966;73.390;2023-04-30T07:15:04;19.98;;;8.43;;
63664;SDS011;49820;33.966;73.390;2023-04-30T07:17:34;11.25;;;6.25;;
63664;SDS011;49820;33.966;73.390;2023-04-30T07:20:04;12.38;;;7.15;;
63664;SDS011;49820;33.966;73.390;2023-04-30T07:22:33;13.40;;;7.37;;
63664;SDS011;49820;33.966;73.390;2023-04-30T07:25:04;15.48;;;7.85;;
63664;SDS011;49820;33.966;73.390;2023-04-30T07:27:33;13.83;;;7.20;;
63664;SDS011;49820;33.966;73.390;2023-04-30T07:30:03;12.57;;;7.43;;
63664;SDS011;49820;33.966;73.390;2023-04-30T07:32:33;12.90;;;7.03;;
63664;SDS011;49820;33.966;73.390;2023-04-30T07:35:03;15.13;;;7.35;;
63664;SDS011;49820;33.966;73.390;2023-04-30T07:37:33;18.95;;;7.97;;
63664;SDS011;49820;33.966;73.390;2023-04-30T07:40:02;12.95;;;6.60;;
63664;SDS011;49820;33.966;73.390;2023-04-30T07:42:32;15.85;;;6.40;;
63664;SDS011;49820;33.966;73.390;2023-04-30T07:45:01;13.27;;;6.78;;
63664;SDS011;49820;33.966;73.390;2023-04-30T07:47:31;12.07;;;6.45;;
63664;SDS011;49820;33.966;73.390;2023-04-30T07:50:00;21.00;;;7.82;;
63664;SDS011;49820;33.966;73.390;2023-04-30T07:52:30;14.87;;;7.37;;
63664;SDS011;49820;33.966;73.390;2023-04-30T07:54:59;15.23;;;7.13;;
63664;SDS011;49820;33.966;73.390;2023-04-30T07:57:28;14.25;;;7.13;;
63664;SDS011;49820;33.966;73.390;2023-04-30T07:59:57;16.73;;;6.85;;
63664;SDS011;49820;33.966;73.390;2023-04-30T08:02:27;13.60;;;6.85;;
63664;SDS011;49820;33.966;73.390;2023-04-30T08:04:56;12.25;;;7.13;;
63664;SDS011;49820;33.966;73.390;2023-04-30T08:07:25;17.77;;;6.43;;
63664;SDS011;49820;33.966;73.390;2023-04-30T08:09:53;18.90;;;7.15;;
63664;SDS011;49820;33.966;73.390;2023-04-30T08:12:23;16.00;;;7.00;;
63664;SDS011;49820;33.966;73.390;2023-04-30T08:14:59;14.07;;;6.35;;
63664;SDS011;49820;33.966;73.390;2023-04-30T08:17:32;16.65;;;6.97;;
63664;SDS011;49820;33.966;73.390;2023-04-30T08:20:03;18.45;;;7.78;;
63664;SDS011;49820;33.966;73.390;2023-04-30T08:22:33;15.40;;;7.23;;
63664;SDS011;49820;33.966;73.390;2023-04-30T08:25:03;18.45;;;8.52;;
63664;SDS011;49820;33.966;73.390;2023-04-30T08:27:33;12.73;;;6.82;;
63664;SDS011;49820;33.966;73.390;2023-04-30T08:30:04;17.70;;;7.50;;
63664;SDS011;49820;33.966;73.390;2023-04-30T08:32:34;14.43;;;7.70;;
63664;SDS011;49820;33.966;73.390;2023-04-30T08:35:04;15.15;;;6.88;;
63664;SDS011;49820;33.966;73.390;2023-04-30T08:37:34;18.08;;;7.13;;
63664;SDS011;49820;33.966;73.390;2023-04-30T08:40:03;15.75;;;7.10;;
63664;SDS011;49820;33.966;73.390;2023-04-30T08:42:37;16.33;;;7.93;;
63664;SDS011;49820;33.966;73.390;2023-04-30T08:45:12;17.65;;;8.20;;
63664;SDS011;49820;33.966;73.390;2023-04-30T08:47:42;17.90;;;8.93;;
63664;SDS011;49820;33.966;73.390;2023-04-30T08:50:12;18.77;;;8.30;;
63664;SDS011;49820;33.966;73.390;2023-04-30T08:52:41;17.70;;;7.95;;
63664;SDS011;49820;33.966;73.390;2023-04-30T08:55:12;21.52;;;8.40;;
63664;SDS011;49820;33.966;73.390;2023-04-30T08:57:41;19.73;;;8.15;;
63664;SDS011;49820;33.966;73.390;2023-04-30T09:00:10;19.25;;;8.35;;
63664;SDS011;49820;33.966;73.390;2023-04-30T09:02:40;20.73;;;8.93;;
63664;SDS011;49820;33.966;73.390;2023-04-30T09:05:10;23.80;;;8.68;;
63664;SDS011;49820;33.966;73.390;2023-04-30T09:07:42;18.02;;;9.07;;
63664;SDS011;49820;33.966;73.390;2023-04-30T09:10:16;21.65;;;8.80;;
63664;SDS011;49820;33.966;73.390;2023-04-30T09:13:02;22.77;;;9.30;;
63664;SDS011;49820;33.966;73.390;2023-04-30T09:15:32;21.70;;;8.93;;
63664;SDS011;49820;33.966;73.390;2023-04-30T09:18:07;22.85;;;9.07;;
63664;SDS011;49820;33.966;73.390;2023-04-30T09:20:58;21.88;;;8.30;;
63664;SDS011;49820;33.966;73.390;2023-04-30T09:23:29;22.30;;;8.10;;
63664;SDS011;49820;33.966;73.390;2023-04-30T09:25:59;18.05;;;8.05;;
63664;SDS011;49820;33.966;73.390;2023-04-30T09:28:28;16.52;;;8.43;;
63664;SDS011;49820;33.966;73.390;2023-04-30T09:30:57;21.02;;;8.77;;
63664;SDS011;49820;33.966;73.390;2023-04-30T09:33:26;16.88;;;8.65;;
63664;SDS011;49820;33.966;73.390;2023-04-30T09:35:57;21.60;;;9.23;;
63664;SDS011;49820;33.966;73.390;2023-04-30T09:38:36;19.08;;;9.60;;
63664;SDS011;49820;33.966;73.390;2023-04-30T09:41:06;19.13;;;8.98;;
63664;SDS011;49820;33.966;73.390;2023-04-30T09:43:56;21.35;;;8.43;;
63664;SDS011;49820;33.966;73.390;2023-04-30T09:46:32;24.17;;;8.23;;
63664;SDS011;49820;33.966;73.390;2023-04-30T09:49:05;19.92;;;8.60;;
63664;SDS011;49820;33.966;73.390;2023-04-30T09:51:34;20.53;;;8.80;;
63664;SDS011;49820;33.966;73.390;2023-04-30T09:54:18;15.10;;;7.67;;
63664;SDS011;49820;33.966;73.390;2023-04-30T09:56:51;17.05;;;7.78;;
63664;SDS011;49820;33.966;73.390;2023-04-30T09:59:26;20.90;;;8.25;;
63664;SDS011;49820;33.966;73.390;2023-04-30T10:02:02;14.38;;;7.68;;
63664;SDS011;49820;33.966;73.390;2023-04-30T10:04:34;21.23;;;8.18;;
63664;SDS011;49820;33.966;73.390;2023-04-30T10:07:07;16.55;;;7.40;;
63664;SDS011;49820;33.966;73.390;2023-04-30T10:10:28;18.05;;;7.78;;
63664;SDS011;49820;33.966;73.390;2023-04-30T10:12:47;15.25;;;7.50;;
63664;SDS011;49820;33.966;73.390;2023-04-30T10:15:23;11.88;;;6.90;;
63664;SDS011;49820;33.966;73.390;2023-04-30T10:20:55;15.07;;;7.35;;
63664;SDS011;49820;33.966;73.390;2023-04-30T10:23:28;13.73;;;7.10;;
63664;SDS011;49820;33.966;73.390;2023-04-30T10:25:57;18.35;;;7.63;;
63664;SDS011;49820;33.966;73.390;2023-04-30T10:28:26;17.93;;;7.50;;
63664;SDS011;49820;33.966;73.390;2023-04-30T10:30:56;17.90;;;6.37;;
63664;SDS011;49820;33.966;73.390;2023-04-30T10:36:25;14.85;;;6.07;;
63664;SDS011;49820;33.966;73.390;2023-04-30T10:39:07;11.13;;;5.85;;
63664;SDS011;49820;33.966;73.390;2023-04-30T10:41:36;15.40;;;6.38;;
63664;SDS011;49820;33.966;73.390;2023-04-30T10:44:06;13.10;;;6.00;;
63664;SDS011;49820;33.966;73.390;2023-04-30T10:46:36;17.45;;;6.88;;
63664;SDS011;49820;33.966;73.390;2023-04-30T10:49:05;22.13;;;6.90;;
63664;SDS011;49820;33.966;73.390;2023-04-30T10:51:45;11.93;;;5.68;;
63664;SDS011;49820;33.966;73.390;2023-04-30T10:54:16;12.20;;;5.80;;
63664;SDS011;49820;33.966;73.390;2023-04-30T10:57:10;15.43;;;6.43;;
63664;SDS011;49820;33.966;73.390;2023-04-30T11:00:27;13.47;;;6.27;;
63664;SDS011;49820;33.966;73.390;2023-04-30T11:02:43;16.98;;;6.78;;
63664;SDS011;49820;33.966;73.390;2023-04-30T11:05:15;16.77;;;6.47;;
63664;SDS011;49820;33.966;73.390;2023-04-30T11:10:24;15.32;;;5.93;;
63664;SDS011;49820;33.966;73.390;2023-04-30T11:12:56;12.57;;;5.28;;
63664;SDS011;49820;33.966;73.390;2023-04-30T11:15:32;18.15;;;6.15;;
63664;SDS011;49820;33.966;73.390;2023-04-30T11:18:07;11.00;;;5.93;;
63664;SDS011;49820;33.966;73.390;2023-04-30T11:20:38;14.70;;;5.72;;
63664;SDS011;49820;33.966;73.390;2023-04-30T11:23:12;13.63;;;6.07;;
63664;SDS011;49820;33.966;73.390;2023-04-30T11:26:04;15.23;;;6.43;;
63664;SDS011;49820;33.966;73.390;2023-04-30T11:28:36;12.73;;;6.10;;
63664;SDS011;49820;33.966;73.390;2023-04-30T11:31:06;15.68;;;6.43;;
63664;SDS011;49820;33.966;73.390;2023-04-30T11:33:35;14.43;;;6.25;;
63664;SDS011;49820;33.966;73.390;2023-04-30T11:36:08;16.37;;;5.97;;
63664;SDS011;49820;33.966;73.390;2023-04-30T11:38:37;14.68;;;5.88;;
63664;SDS011;49820;33.966;73.390;2023-04-30T11:41:10;14.27;;;6.03;;
63664;SDS011;49820;33.966;73.390;2023-04-30T11:43:40;16.40;;;6.07;;
63664;SDS011;49820;33.966;73.390;2023-04-30T11:46:10;19.37;;;6.97;;
63664;SDS011;49820;33.966;73.390;2023-04-30T11:48:40;15.70;;;6.25;;
63664;SDS011;49820;33.966;73.390;2023-04-30T11:51:15;15.20;;;6.60;;
63664;SDS011;49820;33.966;73.390;2023-04-30T11:53:45;16.87;;;7.27;;
63664;SDS011;49820;33.966;73.390;2023-04-30T11:56:19;22.33;;;7.90;;
63664;SDS011;49820;33.966;73.390;2023-04-30T11:58:52;19.55;;;8.02;;
63664;SDS011;49820;33.966;73.390;2023-04-30T12:01:25;14.40;;;7.32;;
63664;SDS011;49820;33.966;73.390;2023-04-30T12:03:55;17.98;;;7.60;;
63664;SDS011;49820;33.966;73.390;2023-04-30T12:06:25;18.80;;;7.40;;
63664;SDS011;49820;33.966;73.390;2023-04-30T12:08:56;15.63;;;7.55;;
63664;SDS011;49820;33.966;73.390;2023-04-30T12:11:26;17.98;;;7.65;;
63664;SDS011;49820;33.966;73.390;2023-04-30T12:13:59;19.67;;;8.10;;
63664;SDS011;49820;33.966;73.390;2023-04-30T12:16:43;20.45;;;7.93;;
63664;SDS011;49820;33.966;73.390;2023-04-30T12:19:20;18.00;;;7.45;;
63664;SDS011;49820;33.966;73.390;2023-04-30T12:21:52;17.67;;;7.43;;
63664;SDS011;49820;33.966;73.390;2023-04-30T12:24:22;18.27;;;7.60;;
63664;SDS011;49820;33.966;73.390;2023-04-30T12:26:54;17.13;;;8.23;;
63664;SDS011;49820;33.966;73.390;2023-04-30T12:29:28;18.70;;;7.53;;
63664;SDS011;49820;33.966;73.390;2023-04-30T12:31:57;19.17;;;7.93;;
63664;SDS011;49820;33.966;73.390;2023-04-30T12:34:27;21.10;;;7.90;;
63664;SDS011;49820;33.966;73.390;2023-04-30T12:37:00;21.25;;;7.95;;
63664;SDS011;49820;33.966;73.390;2023-04-30T12:39:32;18.88;;;8.05;;
63664;SDS011;49820;33.966;73.390;2023-04-30T12:42:01;17.88;;;7.20;;
63664;SDS011;49820;33.966;73.390;2023-04-30T12:44:31;17.08;;;7.53;;
63664;SDS011;49820;33.966;73.390;2023-04-30T12:47:14;20.77;;;8.38;;
63664;SDS011;49820;33.966;73.390;2023-04-30T12:49:44;15.95;;;7.60;;
63664;SDS011;49820;33.966;73.390;2023-04-30T12:52:16;24.13;;;8.05;;
63664;SDS011;49820;33.966;73.390;2023-04-30T12:54:45;17.90;;;8.07;;
63664;SDS011;49820;33.966;73.390;2023-04-30T12:57:15;17.60;;;8.10;;
63664;SDS011;49820;33.966;73.390;2023-04-30T12:59:57;18.63;;;7.97;;
63664;SDS011;49820;33.966;73.390;2023-04-30T13:02:27;18.77;;;8.35;;
63664;SDS011;49820;33.966;73.390;2023-04-30T13:04:59;15.93;;;8.00;;
63664;SDS011;49820;33.966;73.390;2023-04-30T13:07:35;21.13;;;8.05;;
63664;SDS011;49820;33.966;73.390;2023-04-30T13:10:06;18.17;;;8.38;;
63664;SDS011;49820;33.966;73.390;2023-04-30T13:12:37;19.45;;;7.60;;
63664;SDS011;49820;33.966;73.390;2023-04-30T13:15:07;16.90;;;7.97;;
63664;SDS011;49820;33.966;73.390;2023-04-30T13:17:36;15.75;;;7.93;;
63664;SDS011;49820;33.966;73.390;2023-04-30T13:20:07;17.60;;;8.15;;
63664;SDS011;49820;33.966;73.390;2023-04-30T13:22:36;20.90;;;8.98;;
63664;SDS011;49820;33.966;73.390;2023-04-30T13:25:06;19.93;;;8.10;;
63664;SDS011;49820;33.966;73.390;2023-04-30T13:27:35;22.63;;;8.40;;
63664;SDS011;49820;33.966;73.390;2023-04-30T13:30:04;25.80;;;9.30;;
63664;SDS011;49820;33.966;73.390;2023-04-30T13:32:34;22.17;;;9.13;;
63664;SDS011;49820;33.966;73.390;2023-04-30T13:35:03;21.10;;;8.63;;
63664;SDS011;49820;33.966;73.390;2023-04-30T13:37:32;25.50;;;9.40;;
63664;SDS011;49820;33.966;73.390;2023-04-30T13:40:02;20.97;;;9.43;;
63664;SDS011;49820;33.966;73.390;2023-04-30T13:42:36;20.13;;;8.70;;
63664;SDS011;49820;33.966;73.390;2023-04-30T13:45:06;23.73;;;9.63;;
63664;SDS011;49820;33.966;73.390;2023-04-30T13:47:35;27.33;;;9.88;;
63664;SDS011;49820;33.966;73.390;2023-04-30T13:50:05;20.85;;;10.40;;
63664;SDS011;49820;33.966;73.390;2023-04-30T13:52:38;25.75;;;11.45;;
63664;SDS011;49820;33.966;73.390;2023-04-30T13:55:08;29.20;;;10.52;;
63664;SDS011;49820;33.966;73.390;2023-04-30T13:57:37;21.02;;;9.65;;
63664;SDS011;49820;33.966;73.390;2023-04-30T14:00:06;20.25;;;10.00;;
63664;SDS011;49820;33.966;73.390;2023-04-30T14:02:36;22.65;;;9.43;;
63664;SDS011;49820;33.966;73.390;2023-04-30T14:05:05;20.38;;;9.27;;
63664;SDS011;49820;33.966;73.390;2023-04-30T14:07:34;19.88;;;10.55;;
63664;SDS011;49820;33.966;73.390;2023-04-30T14:10:04;26.05;;;13.45;;
63664;SDS011;49820;33.966;73.390;2023-04-30T14:12:33;24.98;;;12.20;;
63664;SDS011;49820;33.966;73.390;2023-04-30T14:15:02;18.55;;;11.52;;
63664;SDS011;49820;33.966;73.390;2023-04-30T14:17:32;23.67;;;11.90;;
63664;SDS011;49820;33.966;73.390;2023-04-30T14:20:01;20.73;;;10.73;;
63664;SDS011;49820;33.966;73.390;2023-04-30T14:22:31;24.35;;;11.48;;
63664;SDS011;49820;33.966;73.390;2023-04-30T14:25:01;24.83;;;13.23;;
63664;SDS011;49820;33.966;73.390;2023-04-30T14:27:30;28.90;;;13.45;;
63664;SDS011;49820;33.966;73.390;2023-04-30T14:30:00;25.67;;;13.35;;
63664;SDS011;49820;33.966;73.390;2023-04-30T14:32:30;25.60;;;12.40;;
63664;SDS011;49820;33.966;73.390;2023-04-30T14:34:59;24.13;;;12.02;;
63664;SDS011;49820;33.966;73.390;2023-04-30T14:37:28;25.90;;;11.88;;
63664;SDS011;49820;33.966;73.390;2023-04-30T14:39:57;30.77;;;12.13;;
63664;SDS011;49820;33.966;73.390;2023-04-30T14:42:27;25.33;;;13.27;;
63664;SDS011;49820;33.966;73.390;2023-04-30T14:44:56;27.92;;;12.20;;
63664;SDS011;49820;33.966;73.390;2023-04-30T14:47:25;22.40;;;11.23;;
63664;SDS011;49820;33.966;73.390;2023-04-30T14:49:54;27.58;;;11.75;;
63664;SDS011;49820;33.966;73.390;2023-04-30T14:52:25;27.75;;;11.38;;
63664;SDS011;49820;33.966;73.390;2023-04-30T14:54:54;21.60;;;10.38;;
63664;SDS011;49820;33.966;73.390;2023-04-30T14:57:23;23.35;;;11.35;;
63664;SDS011;49820;33.966;73.390;2023-04-30T14:59:52;23.90;;;10.13;;
63664;SDS011;49820;33.966;73.390;2023-04-30T15:02:24;20.40;;;10.13;;
63664;SDS011;49820;33.966;73.390;2023-04-30T15:04:54;23.35;;;11.43;;
63664;SDS011;49820;33.966;73.390;2023-04-30T15:07:23;20.73;;;11.00;;
63664;SDS011;49820;33.966;73.390;2023-04-30T15:09:52;26.70;;;12.00;;
63664;SDS011;49820;33.966;73.390;2023-04-30T15:12:22;23.48;;;11.27;;
63664;SDS011;49820;33.966;73.390;2023-04-30T15:14:51;23.50;;;11.45;;
63664;SDS011;49820;33.966;73.390;2023-04-30T15:17:20;21.45;;;11.38;;
63664;SDS011;49820;33.966;73.390;2023-04-30T15:19:50;26.38;;;12.27;;
63664;SDS011;49820;33.966;73.390;2023-04-30T15:22:21;19.70;;;11.93;;
63664;SDS011;49820;33.966;73.390;2023-04-30T15:24:50;24.25;;;12.05;;
63664;SDS011;49820;33.966;73.390;2023-04-30T15:27:19;20.52;;;12.13;;
63664;SDS011;49820;33.966;73.390;2023-04-30T15:29:48;23.13;;;12.23;;
63664;SDS011;49820;33.966;73.390;2023-04-30T15:32:18;24.35;;;12.57;;
63664;SDS011;49820;33.966;73.390;2023-04-30T15:34:47;20.35;;;11.75;;
63664;SDS011;49820;33.966;73.390;2023-04-30T15:37:16;22.52;;;12.60;;
63664;SDS011;49820;33.966;73.390;2023-04-30T15:39:45;19.92;;;12.00;;
63664;SDS011;49820;33.966;73.390;2023-04-30T15:42:15;25.38;;;12.18;;
63664;SDS011;49820;33.966;73.390;2023-04-30T15:44:44;21.30;;;12.75;;
63664;SDS011;49820;33.966;73.390;2023-04-30T15:47:13;22.17;;;12.17;;
63664;SDS011;49820;33.966;73.390;2023-04-30T15:49:52;22.00;;;11.93;;
63664;SDS011;49820;33.966;73.390;2023-04-30T15:52:22;20.63;;;12.00;;
63664;SDS011;49820;33.966;73.390;2023-04-30T15:54:51;19.77;;;12.00;;
63664;SDS011;49820;33.966;73.390;2023-04-30T15:57:21;21.95;;;12.55;;
63664;SDS011;49820;33.966;73.390;2023-04-30T15:59:50;22.77;;;11.63;;
63664;SDS011;49820;33.966;73.390;2023-04-30T16:02:20;26.08;;;12.80;;
63664;SDS011;49820;33.966;73.390;2023-04-30T16:04:49;19.25;;;11.63;;
63664;SDS011;49820;33.966;73.390;2023-04-30T16:07:19;27.20;;;13.02;;
63664;SDS011;49820;33.966;73.390;2023-04-30T16:09:49;26.80;;;12.30;;
63664;SDS011;49820;33.966;73.390;2023-04-30T16:12:19;22.67;;;12.55;;
63664;SDS011;49820;33.966;73.390;2023-04-30T16:14:48;22.25;;;12.85;;
63664;SDS011;49820;33.966;73.390;2023-04-30T16:17:18;21.05;;;13.02;;
63664;SDS011;49820;33.966;73.390;2023-04-30T16:19:48;25.30;;;13.17;;
63664;SDS011;49820;33.966;73.390;2023-04-30T16:22:17;22.23;;;12.57;;
63664;SDS011;49820;33.966;73.390;2023-04-30T16:24:48;20.02;;;12.90;;
63664;SDS011;49820;33.966;73.390;2023-04-30T16:27:17;21.57;;;13.33;;
63664;SDS011;49820;33.966;73.390;2023-04-30T16:29:46;25.75;;;13.13;;
63664;SDS011;49820;33.966;73.390;2023-04-30T16:32:16;22.23;;;12.67;;
63664;SDS011;49820;33.966;73.390;2023-04-30T16:34:45;24.38;;;12.90;;
63664;SDS011;49820;33.966;73.390;2023-04-30T16:37:14;24.58;;;14.00;;
63664;SDS011;49820;33.966;73.390;2023-04-30T16:39:43;26.00;;;12.85;;
63664;SDS011;49820;33.966;73.390;2023-04-30T16:42:12;24.13;;;12.38;;
63664;SDS011;49820;33.966;73.390;2023-04-30T16:44:42;24.77;;;13.77;;
63664;SDS011;49820;33.966;73.390;2023-04-30T16:47:11;24.65;;;13.63;;
63664;SDS011;49820;33.966;73.390;2023-04-30T16:49:41;23.60;;;13.27;;
63664;SDS011;49820;33.966;73.390;2023-04-30T16:52:10;26.92;;;13.68;;
